Plaza, Washington
Current Conditions -  °F | °C
As of 8:53 PM on Thursday 30 Oct 2014 (Local Time) from KGEG Reporting Station
Overcast Overcast  
Wind Chill: 50°   Ceiling: 18000
Heat Index: 50°   Visibility: 10mi
Dew Point: 44°   Wind: 10mph
Humidity: 80%   Direction: 50°NE
Pressure: 29.84"   Gusts: NA
Location:  47.2196°N, 117.453°W
Report Text: KGEG 310353Z 05009KT 10SM FEW130 OVC180 10/07 A2984 RMK AO2 SLP108 T01000067
Loading
Personal Weather Stations






























Interactive Weather Map New forecast layout! Learn more

10-Day Weather Forecast

Advertisements
Track Severe Weather on mobile